sensor_id;sensor_type;location;lat;lon;timestamp;pressure;altitude;pressure_sealevel;temperature;humidity
40384;BME280;26097;42.366;23.818;2023-02-17T00:01:59;94904.38;;;-2.63;100.00
40384;BME280;26097;42.366;23.818;2023-02-17T00:04:59;94900.16;;;-2.64;100.00
40384;BME280;26097;42.366;23.818;2023-02-17T00:08:00;94896.00;;;-2.71;100.00
40384;BME280;26097;42.366;23.818;2023-02-17T00:11:00;94896.84;;;-2.73;100.00
40384;BME280;26097;42.366;23.818;2023-02-17T00:14:00;94891.75;;;-2.73;100.00
40384;BME280;26097;42.366;23.818;2023-02-17T00:17:01;94885.75;;;-2.68;100.00
40384;BME280;26097;42.366;23.818;2023-02-17T00:20:02;94884.34;;;-2.24;100.00
40384;BME280;26097;42.366;23.818;2023-02-17T00:23:02;94884.34;;;-2.24;100.00
40384;BME280;26097;42.366;23.818;2023-02-17T00:26:04;94881.00;;;-1.16;100.00
40384;BME280;26097;42.366;23.818;2023-02-17T00:29:05;94882.16;;;-1.34;100.00
40384;BME280;26097;42.366;23.818;2023-02-17T00:32:05;94874.13;;;-1.64;100.00
40384;BME280;26097;42.366;23.818;2023-02-17T00:35:06;94869.34;;;-1.88;100.00
40384;BME280;26097;42.366;23.818;2023-02-17T00:38:07;94867.63;;;-1.85;100.00
40384;BME280;26097;42.366;23.818;2023-02-17T00:41:07;94867.22;;;-1.59;100.00
40384;BME280;26097;42.366;23.818;2023-02-17T00:44:20;94862.03;;;-1.54;100.00
40384;BME280;26097;42.366;23.818;2023-02-17T00:47:20;94860.53;;;-1.68;100.00
40384;BME280;26097;42.366;23.818;2023-02-17T00:50:21;94854.94;;;-1.92;100.00
40384;BME280;26097;42.366;23.818;2023-02-17T00:53:21;94852.88;;;-1.68;100.00
40384;BME280;26097;42.366;23.818;2023-02-17T00:56:22;94845.97;;;-1.63;100.00
40384;BME280;26097;42.366;23.818;2023-02-17T00:59:22;94846.13;;;-1.74;100.00
40384;BME280;26097;42.366;23.818;2023-02-17T01:02:22;94847.66;;;-1.62;100.00
40384;BME280;26097;42.366;23.818;2023-02-17T01:05:23;94839.16;;;-1.62;100.00
40384;BME280;26097;42.366;23.818;2023-02-17T01:08:24;94834.78;;;-1.55;100.00
40384;BME280;26097;42.366;23.818;2023-02-17T01:11:27;94824.72;;;-1.16;100.00
40384;BME280;26097;42.366;23.818;2023-02-17T01:14:28;94820.53;;;-0.75;100.00
40384;BME280;26097;42.366;23.818;2023-02-17T01:17:28;94815.28;;;-0.27;100.00
40384;BME280;26097;42.366;23.818;2023-02-17T01:20:29;94816.25;;;0.06;100.00
40384;BME280;26097;42.366;23.818;2023-02-17T01:23:29;94823.72;;;0.85;100.00
40384;BME280;26097;42.366;23.818;2023-02-17T01:26:32;94818.44;;;1.23;100.00
40384;BME280;26097;42.366;23.818;2023-02-17T01:29:32;94812.28;;;1.28;100.00
40384;BME280;26097;42.366;23.818;2023-02-17T01:32:33;94812.16;;;1.63;100.00
40384;BME280;26097;42.366;23.818;2023-02-17T01:35:33;94813.16;;;1.88;100.00
40384;BME280;26097;42.366;23.818;2023-02-17T01:38:35;94810.97;;;2.04;100.00
40384;BME280;26097;42.366;23.818;2023-02-17T01:41:35;94820.50;;;1.71;100.00
40384;BME280;26097;42.366;23.818;2023-02-17T01:48:35;94808.03;;;2.95;72.29
40384;BME280;26097;42.366;23.818;2023-02-17T01:51:37;94804.91;;;3.11;69.56
40384;BME280;26097;42.366;23.818;2023-02-17T01:54:55;94793.38;;;2.97;67.59
40384;BME280;26097;42.366;23.818;2023-02-17T01:57:57;94805.38;;;2.46;70.42
40384;BME280;26097;42.366;23.818;2023-02-17T02:01:02;94798.50;;;2.45;70.32
40384;BME280;26097;42.366;23.818;2023-02-17T02:04:05;94804.50;;;2.46;71.27
40384;BME280;26097;42.366;23.818;2023-02-17T02:07:13;94799.16;;;2.25;69.51
40384;BME280;26097;42.366;23.818;2023-02-17T02:10:16;94798.19;;;3.31;63.32
40384;BME280;26097;42.366;23.818;2023-02-17T02:13:16;94786.09;;;3.56;64.76
40384;BME280;26097;42.366;23.818;2023-02-17T02:16:28;94795.34;;;2.89;68.07
40384;BME280;26097;42.366;23.818;2023-02-17T02:36:38;94782.41;;;3.16;66.40
40384;BME280;26097;42.366;23.818;2023-02-17T02:39:46;94791.03;;;3.63;65.10
40384;BME280;26097;42.366;23.818;2023-02-17T02:42:47;94796.03;;;3.90;64.29
40384;BME280;26097;42.366;23.818;2023-02-17T02:45:49;94792.50;;;3.92;63.83
40384;BME280;26097;42.366;23.818;2023-02-17T02:48:50;94794.06;;;3.96;64.30
40384;BME280;26097;42.366;23.818;2023-02-17T02:52:30;94788.28;;;3.90;63.45
40384;BME280;26097;42.366;23.818;2023-02-17T02:58:52;94799.22;;;3.96;62.26
40384;BME280;26097;42.366;23.818;2023-02-17T03:11:31;94802.09;;;3.89;62.44
40384;BME280;26097;42.366;23.818;2023-02-17T03:14:35;94811.22;;;3.75;62.82
40384;BME280;26097;42.366;23.818;2023-02-17T03:17:37;94812.06;;;3.52;63.95
40384;BME280;26097;42.366;23.818;2023-02-17T03:21:00;94803.47;;;3.51;63.32
40384;BME280;26097;42.366;23.818;2023-02-17T03:24:01;94801.22;;;3.66;62.58
40384;BME280;26097;42.366;23.818;2023-02-17T03:27:02;94802.25;;;3.62;62.24
40384;BME280;26097;42.366;23.818;2023-02-17T03:30:04;94811.19;;;3.51;61.39
40384;BME280;26097;42.366;23.818;2023-02-17T03:33:05;94806.72;;;3.56;62.12
40384;BME280;26097;42.366;23.818;2023-02-17T03:36:06;94804.56;;;3.68;61.83
40384;BME280;26097;42.366;23.818;2023-02-17T03:39:06;94801.66;;;3.53;61.08
40384;BME280;26097;42.366;23.818;2023-02-17T03:42:06;94810.09;;;3.35;61.99
40384;BME280;26097;42.366;23.818;2023-02-17T03:45:07;94805.59;;;3.16;62.32
40384;BME280;26097;42.366;23.818;2023-02-17T03:48:08;94816.41;;;3.26;61.98
40384;BME280;26097;42.366;23.818;2023-02-17T03:51:24;94811.94;;;3.55;61.10
40384;BME280;26097;42.366;23.818;2023-02-17T03:54:25;94816.16;;;3.57;60.86
40384;BME280;26097;42.366;23.818;2023-02-17T03:57:26;94811.44;;;3.45;63.42
40384;BME280;26097;42.366;23.818;2023-02-17T04:00:26;94807.91;;;3.71;61.02
40384;BME280;26097;42.366;23.818;2023-02-17T04:03:26;94810.78;;;3.62;61.50
40384;BME280;26097;42.366;23.818;2023-02-17T04:06:27;94812.94;;;3.51;61.67
40384;BME280;26097;42.366;23.818;2023-02-17T04:09:27;94804.88;;;3.60;59.62
40384;BME280;26097;42.366;23.818;2023-02-17T04:12:28;94803.97;;;4.07;57.27
40384;BME280;26097;42.366;23.818;2023-02-17T04:15:28;94804.47;;;4.60;53.59
40384;BME280;26097;42.366;23.818;2023-02-17T04:18:30;94804.06;;;5.11;53.01
40384;BME280;26097;42.366;23.818;2023-02-17T04:21:31;94800.69;;;4.47;56.32
40384;BME280;26097;42.366;23.818;2023-02-17T04:24:31;94795.63;;;4.45;56.31
40384;BME280;26097;42.366;23.818;2023-02-17T04:27:31;94801.22;;;5.38;52.16
40384;BME280;26097;42.366;23.818;2023-02-17T04:30:32;94804.38;;;5.64;51.90
40384;BME280;26097;42.366;23.818;2023-02-17T04:33:33;94805.41;;;6.36;47.07
40384;BME280;26097;42.366;23.818;2023-02-17T04:36:33;94801.78;;;6.76;45.87
40384;BME280;26097;42.366;23.818;2023-02-17T04:39:34;94803.69;;;6.90;46.18
40384;BME280;26097;42.366;23.818;2023-02-17T04:42:35;94793.31;;;6.54;47.82
40384;BME280;26097;42.366;23.818;2023-02-17T04:45:36;94806.63;;;6.47;48.08
40384;BME280;26097;42.366;23.818;2023-02-17T04:48:37;94804.38;;;7.11;45.09
40384;BME280;26097;42.366;23.818;2023-02-17T04:51:37;94802.50;;;7.31;44.02
40384;BME280;26097;42.366;23.818;2023-02-17T04:54:37;94793.28;;;7.58;42.20
40384;BME280;26097;42.366;23.818;2023-02-17T04:57:38;94795.81;;;7.76;41.79
40384;BME280;26097;42.366;23.818;2023-02-17T05:00:38;94811.50;;;7.91;41.56
40384;BME280;26097;42.366;23.818;2023-02-17T05:03:39;94801.53;;;7.99;41.10
40384;BME280;26097;42.366;23.818;2023-02-17T05:06:39;94795.31;;;7.85;41.96
40384;BME280;26097;42.366;23.818;2023-02-17T05:09:40;94813.97;;;7.76;41.72
40384;BME280;26097;42.366;23.818;2023-02-17T05:12:40;94803.78;;;7.73;43.95
40384;BME280;26097;42.366;23.818;2023-02-17T05:15:45;94804.53;;;7.75;42.06
40384;BME280;26097;42.366;23.818;2023-02-17T05:18:45;94804.34;;;7.78;43.26
40384;BME280;26097;42.366;23.818;2023-02-17T05:21:45;94806.63;;;7.84;42.04
40384;BME280;26097;42.366;23.818;2023-02-17T05:24:46;94806.81;;;7.97;41.49
40384;BME280;26097;42.366;23.818;2023-02-17T05:27:46;94795.66;;;8.11;42.17
40384;BME280;26097;42.366;23.818;2023-02-17T05:30:48;94808.16;;;7.89;41.26
40384;BME280;26097;42.366;23.818;2023-02-17T05:33:49;94795.56;;;7.97;41.85
40384;BME280;26097;42.366;23.818;2023-02-17T05:36:49;94803.59;;;7.76;42.38
40384;BME280;26097;42.366;23.818;2023-02-17T05:39:49;94803.50;;;7.62;42.20
40384;BME280;26097;42.366;23.818;2023-02-17T05:42:50;94795.72;;;7.28;43.80
40384;BME280;26097;42.366;23.818;2023-02-17T05:45:50;94803.81;;;7.55;41.65
40384;BME280;26097;42.366;23.818;2023-02-17T05:48:51;94825.06;;;7.96;40.79
40384;BME280;26097;42.366;23.818;2023-02-17T05:51:51;94811.47;;;8.23;40.48
40384;BME280;26097;42.366;23.818;2023-02-17T05:54:51;94819.34;;;8.05;41.03
40384;BME280;26097;42.366;23.818;2023-02-17T05:57:52;94830.00;;;7.51;43.56
40384;BME280;26097;42.366;23.818;2023-02-17T06:00:52;94850.41;;;7.23;43.99
40384;BME280;26097;42.366;23.818;2023-02-17T06:03:53;94834.72;;;7.09;44.91
40384;BME280;26097;42.366;23.818;2023-02-17T06:06:53;94842.13;;;6.99;44.19
40384;BME280;26097;42.366;23.818;2023-02-17T06:09:53;94839.72;;;7.47;42.93
40384;BME280;26097;42.366;23.818;2023-02-17T06:12:54;94844.41;;;7.56;41.88
40384;BME280;26097;42.366;23.818;2023-02-17T06:15:54;94846.94;;;7.58;42.43
40384;BME280;26097;42.366;23.818;2023-02-17T06:18:55;94855.66;;;7.73;42.93
40384;BME280;26097;42.366;23.818;2023-02-17T06:21:55;94862.81;;;7.52;42.75
40384;BME280;26097;42.366;23.818;2023-02-17T06:24:56;94872.16;;;7.03;44.76
40384;BME280;26097;42.366;23.818;2023-02-17T06:27:56;94871.50;;;6.63;46.18
40384;BME280;26097;42.366;23.818;2023-02-17T06:30:57;94879.44;;;6.40;46.61
40384;BME280;26097;42.366;23.818;2023-02-17T06:33:57;94881.19;;;6.21;47.89
40384;BME280;26097;42.366;23.818;2023-02-17T06:36:57;94880.97;;;6.06;48.38
40384;BME280;26097;42.366;23.818;2023-02-17T06:39:58;94882.94;;;6.01;48.59
40384;BME280;26097;42.366;23.818;2023-02-17T06:42:58;94892.66;;;6.15;48.29
40384;BME280;26097;42.366;23.818;2023-02-17T06:45:59;94882.41;;;6.13;48.88
40384;BME280;26097;42.366;23.818;2023-02-17T06:48:59;94894.06;;;6.03;49.33
40384;BME280;26097;42.366;23.818;2023-02-17T06:52:00;94887.38;;;5.97;49.24
40384;BME280;26097;42.366;23.818;2023-02-17T06:55:01;94885.91;;;6.12;48.76
40384;BME280;26097;42.366;23.818;2023-02-17T06:58:01;94883.94;;;6.18;49.02
40384;BME280;26097;42.366;23.818;2023-02-17T07:01:02;94888.41;;;6.33;48.11
40384;BME280;26097;42.366;23.818;2023-02-17T07:04:03;94897.50;;;6.42;47.45
40384;BME280;26097;42.366;23.818;2023-02-17T07:07:03;94896.50;;;6.45;47.34
40384;BME280;26097;42.366;23.818;2023-02-17T07:10:04;94887.66;;;6.68;46.66
40384;BME280;26097;42.366;23.818;2023-02-17T07:13:05;94889.38;;;6.86;45.97
40384;BME280;26097;42.366;23.818;2023-02-17T07:16:05;94888.47;;;7.23;44.77
40384;BME280;26097;42.366;23.818;2023-02-17T07:19:06;94889.59;;;7.52;44.44
40384;BME280;26097;42.366;23.818;2023-02-17T07:22:06;94893.38;;;7.63;44.52
40384;BME280;26097;42.366;23.818;2023-02-17T07:25:07;94901.38;;;7.76;43.98
40384;BME280;26097;42.366;23.818;2023-02-17T07:28:07;94894.09;;;7.82;44.22
40384;BME280;26097;42.366;23.818;2023-02-17T07:31:13;94892.53;;;7.80;44.79
40384;BME280;26097;42.366;23.818;2023-02-17T07:34:14;94891.22;;;7.89;44.53
40384;BME280;26097;42.366;23.818;2023-02-17T07:37:14;94889.44;;;8.05;45.03
40384;BME280;26097;42.366;23.818;2023-02-17T07:40:15;94889.25;;;8.26;44.05
40384;BME280;26097;42.366;23.818;2023-02-17T07:43:15;94897.41;;;8.52;43.87
40384;BME280;26097;42.366;23.818;2023-02-17T07:46:16;94901.09;;;8.64;43.61
40384;BME280;26097;42.366;23.818;2023-02-17T07:49:16;94909.03;;;8.77;43.76
40384;BME280;26097;42.366;23.818;2023-02-17T07:52:17;94898.50;;;8.64;43.75
40384;BME280;26097;42.366;23.818;2023-02-17T07:55:17;94908.63;;;8.52;43.78
40384;BME280;26097;42.366;23.818;2023-02-17T07:58:18;94908.03;;;8.63;42.79
40384;BME280;26097;42.366;23.818;2023-02-17T08:01:19;94913.75;;;8.70;42.03
40384;BME280;26097;42.366;23.818;2023-02-17T08:04:20;94910.72;;;8.78;42.98
40384;BME280;26097;42.366;23.818;2023-02-17T08:07:20;94913.22;;;8.95;42.97
40384;BME280;26097;42.366;23.818;2023-02-17T08:10:21;94912.03;;;9.01;43.46
40384;BME280;26097;42.366;23.818;2023-02-17T08:13:39;94915.53;;;9.16;42.48
40384;BME280;26097;42.366;23.818;2023-02-17T08:16:40;94911.63;;;9.23;43.17
40384;BME280;26097;42.366;23.818;2023-02-17T08:19:40;94916.31;;;9.33;42.75
40384;BME280;26097;42.366;23.818;2023-02-17T08:22:41;94927.53;;;9.49;42.73
40384;BME280;26097;42.366;23.818;2023-02-17T08:25:41;94912.84;;;9.48;42.28
40384;BME280;26097;42.366;23.818;2023-02-17T08:28:42;94913.75;;;9.47;43.06
40384;BME280;26097;42.366;23.818;2023-02-17T08:31:43;94918.84;;;9.34;43.74
40384;BME280;26097;42.366;23.818;2023-02-17T08:34:43;94921.88;;;9.26;44.16
40384;BME280;26097;42.366;23.818;2023-02-17T08:37:44;94923.19;;;9.34;44.05
40384;BME280;26097;42.366;23.818;2023-02-17T08:40:44;94923.19;;;9.34;44.38
40384;BME280;26097;42.366;23.818;2023-02-17T08:43:44;94932.13;;;9.29;44.60
40384;BME280;26097;42.366;23.818;2023-02-17T08:46:45;94931.56;;;9.08;45.50
40384;BME280;26097;42.366;23.818;2023-02-17T08:49:48;94933.03;;;8.98;45.52
40384;BME280;26097;42.366;23.818;2023-02-17T08:52:49;94922.47;;;8.85;46.13
40384;BME280;26097;42.366;23.818;2023-02-17T08:55:49;94934.38;;;8.89;45.98
40384;BME280;26097;42.366;23.818;2023-02-17T08:58:50;94927.88;;;8.96;46.10
40384;BME280;26097;42.366;23.818;2023-02-17T09:01:51;94928.13;;;9.08;46.30
40384;BME280;26097;42.366;23.818;2023-02-17T09:04:51;94927.59;;;9.17;45.89
40384;BME280;26097;42.366;23.818;2023-02-17T09:07:52;94920.38;;;9.22;45.58
40384;BME280;26097;42.366;23.818;2023-02-17T09:10:52;94925.06;;;9.32;45.08
40384;BME280;26097;42.366;23.818;2023-02-17T09:13:52;94918.31;;;9.43;45.87
40384;BME280;26097;42.366;23.818;2023-02-17T09:16:53;94926.16;;;9.58;44.97
40384;BME280;26097;42.366;23.818;2023-02-17T09:19:54;94910.81;;;9.68;44.46
40384;BME280;26097;42.366;23.818;2023-02-17T09:22:54;94913.25;;;9.71;44.09
40384;BME280;26097;42.366;23.818;2023-02-17T09:26:06;94915.41;;;9.79;44.34
40384;BME280;26097;42.366;23.818;2023-02-17T09:29:07;94909.25;;;10.09;43.18
40384;BME280;26097;42.366;23.818;2023-02-17T09:32:08;94912.50;;;10.41;42.57
40384;BME280;26097;42.366;23.818;2023-02-17T09:35:16;94900.44;;;10.68;41.70
40384;BME280;26097;42.366;23.818;2023-02-17T09:38:17;94897.78;;;10.97;40.55
40384;BME280;26097;42.366;23.818;2023-02-17T09:44:25;94901.56;;;11.06;39.87
40384;BME280;26097;42.366;23.818;2023-02-17T09:53:53;94901.13;;;11.52;39.36
40384;BME280;26097;42.366;23.818;2023-02-17T09:56:58;94892.47;;;11.52;38.80
40384;BME280;26097;42.366;23.818;2023-02-17T10:00:11;94874.19;;;11.52;38.83
40384;BME280;26097;42.366;23.818;2023-02-17T10:03:21;94886.75;;;11.73;38.53
40384;BME280;26097;42.366;23.818;2023-02-17T10:06:33;94883.06;;;11.75;38.91
40384;BME280;26097;42.366;23.818;2023-02-17T10:10:15;94882.34;;;11.99;38.46
40384;BME280;26097;42.366;23.818;2023-02-17T10:13:19;94881.09;;;11.92;38.18
40384;BME280;26097;42.366;23.818;2023-02-17T10:16:25;94866.38;;;11.78;37.86
40384;BME280;26097;42.366;23.818;2023-02-17T10:23:03;94857.56;;;12.55;34.84
40384;BME280;26097;42.366;23.818;2023-02-17T10:26:21;94865.19;;;12.71;34.04
40384;BME280;26097;42.366;23.818;2023-02-17T10:35:54;94846.13;;;12.93;33.68
40384;BME280;26097;42.366;23.818;2023-02-17T10:39:08;94849.78;;;13.15;32.10
40384;BME280;26097;42.366;23.818;2023-02-17T10:42:16;94836.13;;;13.23;32.75
40384;BME280;26097;42.366;23.818;2023-02-17T10:45:58;94827.69;;;13.31;32.15
40384;BME280;26097;42.366;23.818;2023-02-17T10:48:53;94831.72;;;13.48;31.54
40384;BME280;26097;42.366;23.818;2023-02-17T10:52:00;94821.78;;;13.40;32.21
40384;BME280;26097;42.366;23.818;2023-02-17T10:55:10;94828.91;;;13.38;31.49
40384;BME280;26097;42.366;23.818;2023-02-17T10:58:20;94819.94;;;13.65;32.40
40384;BME280;26097;42.366;23.818;2023-02-17T11:01:22;94818.13;;;13.54;31.51
40384;BME280;26097;42.366;23.818;2023-02-17T11:04:22;94811.09;;;13.54;31.43
40384;BME280;26097;42.366;23.818;2023-02-17T11:07:40;94813.75;;;13.66;30.45
40384;BME280;26097;42.366;23.818;2023-02-17T11:10:41;94811.63;;;13.82;31.48
40384;BME280;26097;42.366;23.818;2023-02-17T11:17:02;94815.50;;;13.65;33.36
40384;BME280;26097;42.366;23.818;2023-02-17T11:20:27;94814.22;;;13.60;32.35
40384;BME280;26097;42.366;23.818;2023-02-17T11:23:27;94806.81;;;13.53;32.58
40384;BME280;26097;42.366;23.818;2023-02-17T11:26:31;94810.66;;;13.83;32.31
40384;BME280;26097;42.366;23.818;2023-02-17T11:29:31;94799.22;;;13.84;32.24
40384;BME280;26097;42.366;23.818;2023-02-17T11:32:33;94798.50;;;14.05;31.59
40384;BME280;26097;42.366;23.818;2023-02-17T11:41:38;94802.66;;;13.85;31.82
40384;BME280;26097;42.366;23.818;2023-02-17T11:44:39;94806.63;;;13.79;32.66
40384;BME280;26097;42.366;23.818;2023-02-17T12:01:30;94788.13;;;13.47;33.40
40384;BME280;26097;42.366;23.818;2023-02-17T12:04:53;94798.00;;;13.43;32.83
40384;BME280;26097;42.366;23.818;2023-02-17T12:08:07;94796.09;;;13.45;32.32
40384;BME280;26097;42.366;23.818;2023-02-17T12:11:25;94784.16;;;13.41;33.04
40384;BME280;26097;42.366;23.818;2023-02-17T12:18:29;94787.31;;;13.22;32.94
40384;BME280;26097;42.366;23.818;2023-02-17T12:21:38;94775.09;;;13.34;32.82
40384;BME280;26097;42.366;23.818;2023-02-17T12:24:56;94786.34;;;13.47;32.41
40384;BME280;26097;42.366;23.818;2023-02-17T12:38:18;94779.19;;;13.95;31.00
40384;BME280;26097;42.366;23.818;2023-02-17T12:41:39;94781.47;;;14.11;30.92
40384;BME280;26097;42.366;23.818;2023-02-17T12:44:48;94765.94;;;14.19;31.14
40384;BME280;26097;42.366;23.818;2023-02-17T12:47:57;94766.09;;;14.18;29.96
40384;BME280;26097;42.366;23.818;2023-02-17T12:51:10;94775.88;;;14.16;29.95
40384;BME280;26097;42.366;23.818;2023-02-17T12:54:25;94764.19;;;14.08;30.51
40384;BME280;26097;42.366;23.818;2023-02-17T12:57:54;94772.78;;;13.88;30.39
40384;BME280;26097;42.366;23.818;2023-02-17T13:01:03;94772.53;;;13.91;30.02
40384;BME280;26097;42.366;23.818;2023-02-17T13:04:05;94776.59;;;13.83;30.09
40384;BME280;26097;42.366;23.818;2023-02-17T13:10:29;94765.38;;;14.16;29.45
40384;BME280;26097;42.366;23.818;2023-02-17T13:13:32;94761.09;;;14.03;29.76
40384;BME280;26097;42.366;23.818;2023-02-17T13:16:41;94759.63;;;14.22;29.16
40384;BME280;26097;42.366;23.818;2023-02-17T13:19:42;94762.50;;;14.19;29.11
40384;BME280;26097;42.366;23.818;2023-02-17T13:22:43;94755.84;;;14.03;29.77
40384;BME280;26097;42.366;23.818;2023-02-17T13:25:44;94752.63;;;14.11;30.01
40384;BME280;26097;42.366;23.818;2023-02-17T13:28:44;94758.22;;;14.18;29.51
40384;BME280;26097;42.366;23.818;2023-02-17T13:31:47;94755.41;;;14.42;30.49
40384;BME280;26097;42.366;23.818;2023-02-17T13:34:59;94747.94;;;14.26;29.78
40384;BME280;26097;42.366;23.818;2023-02-17T13:38:02;94742.00;;;14.24;30.43
40384;BME280;26097;42.366;23.818;2023-02-17T13:41:05;94751.00;;;14.42;29.67
40384;BME280;26097;42.366;23.818;2023-02-17T13:47:33;94748.16;;;14.34;29.13
40384;BME280;26097;42.366;23.818;2023-02-17T13:50:37;94738.34;;;14.48;29.14
40384;BME280;26097;42.366;23.818;2023-02-17T13:53:41;94743.94;;;14.43;28.84
40384;BME280;26097;42.366;23.818;2023-02-17T13:56:48;94737.28;;;14.50;29.15
40384;BME280;26097;42.366;23.818;2023-02-17T13:59:49;94754.69;;;14.51;29.21
40384;BME280;26097;42.366;23.818;2023-02-17T14:03:10;94740.84;;;14.49;29.39
40384;BME280;26097;42.366;23.818;2023-02-17T14:06:19;94749.09;;;14.45;29.28
40384;BME280;26097;42.366;23.818;2023-02-17T14:09:30;94740.94;;;14.59;29.61
40384;BME280;26097;42.366;23.818;2023-02-17T14:12:31;94740.44;;;14.65;29.41
40384;BME280;26097;42.366;23.818;2023-02-17T14:15:31;94738.75;;;14.64;29.56
40384;BME280;26097;42.366;23.818;2023-02-17T14:18:33;94734.69;;;14.71;29.86
40384;BME280;26097;42.366;23.818;2023-02-17T14:21:36;94741.38;;;14.76;29.68
40384;BME280;26097;42.366;23.818;2023-02-17T14:24:37;94734.38;;;14.53;29.43
40384;BME280;26097;42.366;23.818;2023-02-17T14:27:47;94728.81;;;14.47;30.12
40384;BME280;26097;42.366;23.818;2023-02-17T14:30:47;94746.81;;;14.40;29.96
40384;BME280;26097;42.366;23.818;2023-02-17T14:34:01;94738.41;;;14.36;29.72
40384;BME280;26097;42.366;23.818;2023-02-17T14:37:15;94739.78;;;14.08;30.26
40384;BME280;26097;42.366;23.818;2023-02-17T14:40:19;94744.41;;;14.04;30.63
40384;BME280;26097;42.366;23.818;2023-02-17T14:43:21;94741.47;;;13.86;31.18
40384;BME280;26097;42.366;23.818;2023-02-17T14:46:22;94745.28;;;13.48;32.01
40384;BME280;26097;42.366;23.818;2023-02-17T14:49:22;94742.22;;;13.07;32.82
40384;BME280;26097;42.366;23.818;2023-02-17T14:52:24;94745.97;;;12.80;33.60
40384;BME280;26097;42.366;23.818;2023-02-17T14:55:34;94753.94;;;12.54;34.59
40384;BME280;26097;42.366;23.818;2023-02-17T14:58:37;94754.63;;;12.56;34.47
40384;BME280;26097;42.366;23.818;2023-02-17T15:01:37;94755.31;;;12.47;34.72
40384;BME280;26097;42.366;23.818;2023-02-17T15:04:38;94760.84;;;12.31;35.07
40384;BME280;26097;42.366;23.818;2023-02-17T15:07:38;94759.19;;;12.17;35.35
40384;BME280;26097;42.366;23.818;2023-02-17T15:10:39;94758.63;;;12.00;36.07
40384;BME280;26097;42.366;23.818;2023-02-17T15:13:39;94757.72;;;11.75;36.42
40384;BME280;26097;42.366;23.818;2023-02-17T15:16:40;94760.25;;;11.64;36.47
40384;BME280;26097;42.366;23.818;2023-02-17T15:19:41;94759.19;;;11.53;36.88
40384;BME280;26097;42.366;23.818;2023-02-17T15:22:43;94754.84;;;11.41;37.01
40384;BME280;26097;42.366;23.818;2023-02-17T15:25:44;94754.94;;;11.26;37.06
40384;BME280;26097;42.366;23.818;2023-02-17T15:28:45;94759.53;;;11.10;37.57
40384;BME280;26097;42.366;23.818;2023-02-17T15:31:46;94750.97;;;10.95;37.66
40384;BME280;26097;42.366;23.818;2023-02-17T15:34:46;94753.84;;;10.77;38.12
40384;BME280;26097;42.366;23.818;2023-02-17T15:37:48;94753.84;;;10.64;38.12
40384;BME280;26097;42.366;23.818;2023-02-17T15:40:48;94756.63;;;10.34;39.29
40384;BME280;26097;42.366;23.818;2023-02-17T15:43:49;94759.16;;;10.21;38.76
40384;BME280;26097;42.366;23.818;2023-02-17T15:46:52;94761.25;;;10.01;39.16
40384;BME280;26097;42.366;23.818;2023-02-17T15:49:53;94758.50;;;9.90;39.29
40384;BME280;26097;42.366;23.818;2023-02-17T15:52:54;94760.66;;;9.68;39.57
40384;BME280;26097;42.366;23.818;2023-02-17T15:55:54;94766.19;;;9.64;39.51
40384;BME280;26097;42.366;23.818;2023-02-17T15:58:55;94772.38;;;9.47;39.85
40384;BME280;26097;42.366;23.818;2023-02-17T16:01:55;94765.72;;;9.42;39.73
40384;BME280;26097;42.366;23.818;2023-02-17T16:04:56;94775.63;;;9.36;40.11
40384;BME280;26097;42.366;23.818;2023-02-17T16:07:56;94780.28;;;9.31;40.28
40384;BME280;26097;42.366;23.818;2023-02-17T16:10:57;94785.09;;;9.22;40.26
40384;BME280;26097;42.366;23.818;2023-02-17T16:13:57;94790.31;;;9.22;40.58
40384;BME280;26097;42.366;23.818;2023-02-17T16:16:58;94789.00;;;9.15;40.43
40384;BME280;26097;42.366;23.818;2023-02-17T16:19:58;94792.78;;;8.95;40.80
40384;BME280;26097;42.366;23.818;2023-02-17T16:22:59;94800.63;;;8.79;41.32
40384;BME280;26097;42.366;23.818;2023-02-17T16:26:00;94800.22;;;8.70;41.28
40384;BME280;26097;42.366;23.818;2023-02-17T16:29:05;94810.00;;;8.51;42.02
40384;BME280;26097;42.366;23.818;2023-02-17T16:32:11;94814.47;;;8.63;42.01
40384;BME280;26097;42.366;23.818;2023-02-17T16:35:17;94818.72;;;8.50;42.22
40384;BME280;26097;42.366;23.818;2023-02-17T16:38:20;94817.50;;;8.39;42.25
40384;BME280;26097;42.366;23.818;2023-02-17T16:41:21;94824.00;;;8.16;42.94
40384;BME280;26097;42.366;23.818;2023-02-17T16:44:22;94826.75;;;8.29;42.84
40384;BME280;26097;42.366;23.818;2023-02-17T16:47:22;94832.78;;;8.46;42.58
40384;BME280;26097;42.366;23.818;2023-02-17T16:50:27;94828.75;;;8.56;42.55
40384;BME280;26097;42.366;23.818;2023-02-17T16:53:28;94830.66;;;8.68;42.19
40384;BME280;26097;42.366;23.818;2023-02-17T16:56:36;94836.44;;;8.74;42.33
40384;BME280;26097;42.366;23.818;2023-02-17T16:59:38;94831.41;;;8.70;42.33
40384;BME280;26097;42.366;23.818;2023-02-17T17:02:39;94833.09;;;8.71;42.40
40384;BME280;26097;42.366;23.818;2023-02-17T17:05:40;94825.34;;;8.86;42.21
40384;BME280;26097;42.366;23.818;2023-02-17T17:08:41;94820.47;;;8.96;41.89
40384;BME280;26097;42.366;23.818;2023-02-17T17:11:42;94824.88;;;8.94;41.78
40384;BME280;26097;42.366;23.818;2023-02-17T17:14:43;94827.09;;;8.85;42.00
40384;BME280;26097;42.366;23.818;2023-02-17T17:20:56;94816.56;;;9.03;41.27
40384;BME280;26097;42.366;23.818;2023-02-17T17:23:56;94822.56;;;8.89;41.55
40384;BME280;26097;42.366;23.818;2023-02-17T17:26:57;94825.50;;;8.83;41.70
40384;BME280;26097;42.366;23.818;2023-02-17T17:29:57;94820.97;;;8.86;41.51
40384;BME280;26097;42.366;23.818;2023-02-17T17:32:57;94823.19;;;8.78;41.91
40384;BME280;26097;42.366;23.818;2023-02-17T17:35:58;94825.34;;;8.86;41.09
40384;BME280;26097;42.366;23.818;2023-02-17T17:39:00;94828.88;;;8.85;41.18
40384;BME280;26097;42.366;23.818;2023-02-17T17:42:00;94819.56;;;8.81;40.86
40384;BME280;26097;42.366;23.818;2023-02-17T17:45:01;94827.25;;;8.52;41.32